KSGR/SGR METAR and TAF weather

Enter ICAO airport designator
Station Type Date Time Source
KSGR METAR 2020/03/29 13:53 UTC NOAA

KSGR 291353Z 06005KT 10SM CLR 18/12 A3011 RMK AO2 SLP196 T01780122 $


Station Type Date Time Source
KSGR Decoded METAR 2020/03/29 13:53 UTC NOAA

SUGARLAND REGIONAL AIRPORT, TX, United States (KSGR) 29-37N 095-39W
Mar 29, 2020 - 09:53 AM EDT / 2020.03.29 1353 UTC
Wind: from the ENE (060 degrees) at 6 MPH (5 KT):0
Visibility: 10 mile(s):0
Sky conditions: clear
Temperature: 64.0 F (17.8 C)
Dew Point: 54.0 F (12.2 C)
Relative Humidity: 69%
Pressure (altimeter): 30.11 in. Hg (1019 hPa)
ob: KSGR 291353Z 06005KT 10SM CLR 18/12 A3011 RMK AO2 SLP196 T01780122
cycle: 14

Station Type Date Time Source
KSGR TAF 2020/03/29 12:22 UTC NOAA

TAF KSGR 291120Z 2912/3012 04006KT P6SM FEW150
FM291600 07008KT P6SM BKN150
FM292300 09005KT P6SM SCT050 BKN100
FM300500 08006KT P6SM SCT015 BKN025 BKN050

Example: see airport list